Time;durP1;ratioP1;P1;durP2;ratioP2;P2;SDS_P1;SDS_P2;PMS_P1;PMS_P2;Temp;Humidity;BMP_temperature;BMP_pressure;BME280_temperature;BME280_humidity;BME280_pressure;Samples;Min_cycle;Max_cycle;Signal;HPM_P1;HPM_P2
2022/03/17 00:00:09;;;;;;;34.38;24.77;;;12.30;99.90;;;;;;5031970;28;20079;-79
2022/03/17 00:02:36;;;;;;;37.55;25.25;;;12.20;99.90;;;;;;5041866;28;20026;-80
2022/03/17 00:05:04;;;;;;;30.15;22.10;;;12.20;99.90;;;;;;5037812;28;20426;-79
2022/03/17 00:07:30;;;;;;;33.58;23.63;;;12.30;99.90;;;;;;5037573;28;20025;-79
2022/03/17 00:09:57;;;;;;;33.70;24.80;;;12.20;99.90;;;;;;5028376;28;20026;-79
2022/03/17 00:12:22;;;;;;;40.90;25.17;;;12.20;99.90;;;;;;5045221;28;20116;-79
2022/03/17 00:14:48;;;;;;;34.78;24.52;;;12.20;99.90;;;;;;5035919;28;20496;-79
2022/03/17 00:17:13;;;;;;;32.60;21.85;;;12.20;99.90;;;;;;5027399;28;20060;-80
2022/03/17 00:19:39;;;;;;;32.92;21.38;;;12.10;99.90;;;;;;5043601;28;20036;-80
2022/03/17 00:22:09;;;;;;;35.63;24.70;;;12.10;99.90;;;;;;5024828;28;20062;-80
2022/03/17 00:24:37;;;;;;;33.38;23.23;;;12.20;99.90;;;;;;5040582;28;20018;-79
2022/03/17 00:27:08;;;;;;;37.67;24.95;;;12.20;99.90;;;;;;5041010;28;20490;-79
2022/03/17 00:29:35;;;;;;;33.67;21.90;;;12.30;99.90;;;;;;5037031;28;20121;-79
2022/03/17 00:32:01;;;;;;;35.88;23.23;;;12.20;99.90;;;;;;5028962;28;20036;-79
2022/03/17 00:34:27;;;;;;;35.47;23.67;;;12.30;99.90;;;;;;5038556;28;20082;-79
2022/03/17 00:36:52;;;;;;;33.65;21.65;;;12.30;99.90;;;;;;5042758;28;20026;-80
2022/03/17 00:39:18;;;;;;;34.38;23.80;;;12.20;99.90;;;;;;5027383;28;20470;-79
2022/03/17 00:41:44;;;;;;;32.60;23.13;;;12.20;99.90;;;;;;5039299;28;20040;-79
2022/03/17 00:44:11;;;;;;;32.65;22.23;;;12.20;99.90;;;;;;5026754;28;20026;-79
2022/03/17 00:46:37;;;;;;;31.80;21.95;;;12.10;99.90;;;;;;5032236;28;20370;-80
2022/03/17 00:49:03;;;;;;;36.33;23.08;;;12.20;99.90;;;;;;5040386;28;20508;-79
2022/03/17 00:51:29;;;;;;;34.33;23.90;;;12.20;99.90;;;;;;5030256;28;20034;-79
2022/03/17 00:53:55;;;;;;;36.15;24.85;;;12.10;99.90;;;;;;5041862;28;20029;-79
2022/03/17 00:56:21;;;;;;;32.85;21.95;;;12.20;99.90;;;;;;5029918;28;20033;-79
2022/03/17 00:58:47;;;;;;;34.25;22.05;;;12.10;99.90;;;;;;5040019;28;20102;-79
2022/03/17 01:01:13;;;;;;;40.38;24.08;;;12.10;99.90;;;;;;5043976;28;20025;-79
2022/03/17 01:03:40;;;;;;;34.28;23.55;;;12.10;99.90;;;;;;5044059;28;20028;-80
2022/03/17 01:06:06;;;;;;;32.88;22.70;;;12.10;99.90;;;;;;5032975;28;20079;-79
2022/03/17 01:08:32;;;;;;;37.17;22.42;;;12.10;99.90;;;;;;5029663;28;20030;-80
2022/03/17 01:10:57;;;;;;;32.47;22.90;;;12.10;99.90;;;;;;5040973;28;20104;-79
2022/03/17 01:13:23;;;;;;;33.95;22.00;;;11.90;99.90;;;;;;5024856;28;20029;-80
2022/03/17 01:15:49;;;;;;;39.58;23.33;;;12.00;99.90;;;;;;5034702;28;20083;-79
2022/03/17 01:18:14;;;;;;;36.70;23.65;;;12.10;99.90;;;;;;5033787;28;20017;-80
2022/03/17 01:20:41;;;;;;;33.40;22.80;;;12.10;99.90;;;;;;5025801;28;20493;-79
2022/03/17 01:23:07;;;;;;;37.17;23.58;;;12.10;99.90;;;;;;5030587;28;20075;-79
2022/03/17 01:25:33;;;;;;;31.73;21.05;;;12.10;99.90;;;;;;5032111;28;20021;-80
2022/03/17 01:27:59;;;;;;;39.45;23.92;;;12.10;99.90;;;;;;5033683;28;20029;-79
2022/03/17 01:30:25;;;;;;;35.72;23.45;;;12.00;99.90;;;;;;5028605;28;20049;-80
2022/03/17 01:32:50;;;;;;;32.92;21.67;;;12.10;99.90;;;;;;5042221;28;20068;-79
2022/03/17 01:35:16;;;;;;;35.75;23.58;;;12.00;99.90;;;;;;5043475;28;20390;-78
2022/03/17 01:37:41;;;;;;;34.83;23.75;;;12.10;99.90;;;;;;5031238;28;20045;-79
2022/03/17 01:40:08;;;;;;;35.38;20.75;;;12.20;99.90;;;;;;5039854;28;20052;-78
2022/03/17 01:42:35;;;;;;;36.47;22.13;;;12.20;99.90;;;;;;5028107;28;20029;-78
2022/03/17 01:45:02;;;;;;;30.75;21.17;;;12.20;99.90;;;;;;5026868;28;20025;-78
2022/03/17 01:47:27;;;;;;;36.08;21.27;;;12.30;99.90;;;;;;5034760;28;20105;-79
2022/03/17 01:49:58;;;;;;;34.20;22.23;;;12.30;99.90;;;;;;5028271;28;20474;-78
2022/03/17 01:52:25;;;;;;;33.72;21.27;;;12.30;99.90;;;;;;5030169;28;20030;-78
2022/03/17 01:54:51;;;;;;;33.97;22.10;;;12.30;99.90;;;;;;5040263;28;20470;-79
2022/03/17 01:57:17;;;;;;;34.38;22.45;;;12.30;99.90;;;;;;5041745;28;20030;-78
2022/03/17 01:59:43;;;;;;;38.85;22.92;;;12.40;99.90;;;;;;5037705;28;20438;-79
2022/03/17 02:02:12;;;;;;;34.83;22.50;;;12.30;99.90;;;;;;5029944;28;20053;-78
2022/03/17 02:04:41;;;;;;;37.10;23.23;;;12.30;99.90;;;;;;5033463;28;20030;-81
2022/03/17 02:07:07;;;;;;;36.92;23.08;;;12.30;99.90;;;;;;5046579;28;20474;-78
2022/03/17 02:09:35;;;;;;;35.72;22.90;;;12.40;99.90;;;;;;5044698;28;20485;-79
2022/03/17 02:14:50;;;;;;;30.77;21.95;;;12.50;99.90;;;;;;5032818;28;20390;-78
2022/03/17 02:17:16;;;;;;;36.70;24.65;;;12.50;99.90;;;;;;5025161;28;20030;-79
2022/03/17 02:19:42;;;;;;;36.67;23.67;;;12.60;99.90;;;;;;5032047;28;20037;-78
2022/03/17 02:22:12;;;;;;;43.85;24.70;;;12.50;99.90;;;;;;5035534;28;20036;-79
2022/03/17 02:27:25;;;;;;;32.67;21.10;;;12.60;99.90;;;;;;5033501;28;20397;-79
2022/03/17 02:29:51;;;;;;;43.75;25.88;;;12.60;99.90;;;;;;5029821;28;20442;-79
2022/03/17 02:32:17;;;;;;;36.63;24.48;;;12.60;99.90;;;;;;5030179;28;20429;-79
2022/03/17 02:34:44;;;;;;;42.90;25.52;;;12.60;99.90;;;;;;5025162;28;20024;-79
2022/03/17 02:37:12;;;;;;;37.90;23.65;;;12.60;99.90;;;;;;5034312;28;20053;-79
2022/03/17 02:39:38;;;;;;;43.08;25.52;;;12.60;99.90;;;;;;5033184;28;20546;-79
2022/03/17 02:42:05;;;;;;;38.92;24.60;;;12.70;99.90;;;;;;5037213;28;20024;-79
2022/03/17 02:44:32;;;;;;;40.72;26.33;;;12.60;99.90;;;;;;5038109;28;20025;-79
2022/03/17 02:46:58;;;;;;;45.90;25.88;;;12.60;99.90;;;;;;5027095;28;20107;-79
2022/03/17 02:49:24;;;;;;;45.70;27.05;;;12.60;99.90;;;;;;5038607;28;20033;-79
2022/03/17 02:51:49;;;;;;;47.45;28.92;;;12.70;99.90;;;;;;5021900;28;20028;-79
2022/03/17 02:54:15;;;;;;;46.38;27.75;;;12.70;99.90;;;;;;5040367;28;20021;-81
2022/03/17 02:56:40;;;;;;;43.08;26.77;;;12.60;99.90;;;;;;5025944;28;20044;-81
2022/03/17 02:59:06;;;;;;;44.80;26.63;;;12.60;99.90;;;;;;5036187;28;20022;-80
2022/03/17 03:01:32;;;;;;;43.63;26.80;;;12.70;99.90;;;;;;5041339;28;20466;-80
2022/03/17 03:03:58;;;;;;;50.65;29.77;;;12.70;99.90;;;;;;5027590;28;20107;-80
2022/03/17 03:06:24;;;;;;;44.30;27.52;;;12.70;99.90;;;;;;5041692;28;20480;-80
2022/03/17 03:08:49;;;;;;;46.58;28.20;;;12.60;99.90;;;;;;5025270;28;20026;-80
2022/03/17 03:11:15;;;;;;;46.33;30.35;;;12.70;99.90;;;;;;5039965;28;20021;-80
2022/03/17 03:13:40;;;;;;;50.15;30.67;;;12.70;99.90;;;;;;5030718;28;20029;-80
2022/03/17 03:16:06;;;;;;;52.17;31.23;;;12.60;99.90;;;;;;5026565;28;20021;-79
2022/03/17 03:18:32;;;;;;;49.13;30.45;;;12.70;99.90;;;;;;5040361;28;20076;-80
2022/03/17 03:20:57;;;;;;;54.63;34.35;;;12.70;99.90;;;;;;5033567;28;20454;-80
2022/03/17 03:23:23;;;;;;;49.42;29.98;;;12.60;99.90;;;;;;5023785;28;20041;-79
2022/03/17 03:25:49;;;;;;;28.25;20.05;;;12.60;99.90;;;;;;5036665;28;20021;-78
2022/03/17 03:28:15;;;;;;;26.52;19.60;;;12.40;99.90;;;;;;5030695;28;20045;-79
2022/03/17 03:30:40;;;;;;;24.67;18.50;;;12.30;99.90;;;;;;5046177;28;20432;-80
2022/03/17 03:33:08;;;;;;;24.30;18.92;;;12.30;99.90;;;;;;5025408;28;20075;-79
2022/03/17 03:38:19;;;;;;;23.83;18.92;;;12.20;99.90;;;;;;5033067;28;20508;-78
2022/03/17 03:40:45;;;;;;;27.73;21.75;;;12.00;99.90;;;;;;5033144;28;20026;-77
2022/03/17 03:43:11;;;;;;;29.17;21.73;;;11.90;99.90;;;;;;5038392;28;20017;-76
2022/03/17 03:45:37;;;;;;;30.92;23.27;;;11.80;99.90;;;;;;5036009;28;20030;-78
2022/03/17 03:48:03;;;;;;;40.38;28.05;;;11.80;99.90;;;;;;5020358;28;20549;-77
2022/03/17 03:50:30;;;;;;;45.03;30.10;;;11.80;99.90;;;;;;5033505;28;20026;-77
2022/03/17 03:52:57;;;;;;;48.90;30.42;;;11.90;99.90;;;;;;5024250;28;20042;-78
2022/03/17 03:55:23;;;;;;;52.55;32.45;;;11.80;99.90;;;;;;5033916;28;20040;-78
2022/03/17 03:57:48;;;;;;;59.10;34.45;;;11.80;99.90;;;;;;5041082;28;20026;-79
2022/03/17 04:03:03;;;;;;;47.78;30.88;;;11.70;99.90;;;;;;5032758;28;20484;-79
2022/03/17 04:05:29;;;;;;;51.90;30.92;;;11.60;99.90;;;;;;5027947;28;20055;-79
2022/03/17 04:07:56;;;;;;;53.85;31.63;;;11.60;99.90;;;;;;5040236;28;20037;-79
2022/03/17 04:10:23;;;;;;;48.30;30.33;;;11.50;99.90;;;;;;5020302;28;20482;-78
2022/03/17 04:12:49;;;;;;;44.53;24.67;;;11.40;99.90;;;;;;5035499;28;20402;-79
2022/03/17 04:15:15;;;;;;;38.63;22.65;;;11.30;99.90;;;;;;5032629;28;20360;-78
2022/03/17 04:17:41;;;;;;;34.05;21.13;;;11.20;99.90;;;;;;5033175;28;20167;-79
2022/03/17 04:20:08;;;;;;;33.97;20.88;;;11.20;99.90;;;;;;5035354;28;20033;-78
2022/03/17 04:22:34;;;;;;;38.53;22.27;;;11.20;99.90;;;;;;5039533;28;20022;-79
2022/03/17 04:24:59;;;;;;;34.40;22.75;;;11.20;99.90;;;;;;5035982;28;20361;-80
2022/03/17 04:27:25;;;;;;;31.55;20.23;;;11.20;99.90;;;;;;5041521;28;20076;-79
2022/03/17 04:29:50;;;;;;;29.80;21.08;;;11.20;99.90;;;;;;5034592;28;20033;-80
2022/03/17 04:32:16;;;;;;;29.65;20.25;;;11.20;99.90;;;;;;5031166;28;20132;-79
2022/03/17 04:34:42;;;;;;;33.47;20.95;;;11.20;99.90;;;;;;5041054;28;20041;-78
2022/03/17 04:37:07;;;;;;;30.52;20.70;;;11.10;99.90;;;;;;5031083;28;20021;-79
2022/03/17 04:39:33;;;;;;;32.35;20.67;;;11.00;99.90;;;;;;5041029;28;20036;-79
2022/03/17 04:41:59;;;;;;;25.80;17.02;;;11.00;99.90;;;;;;5028952;28;20108;-79
2022/03/17 04:44:27;;;;;;;31.00;19.40;;;11.10;99.90;;;;;;5041536;28;20033;-79
2022/03/17 04:46:53;;;;;;;30.02;18.98;;;11.00;99.90;;;;;;5023806;28;20107;-79
2022/03/17 04:49:18;;;;;;;28.00;18.05;;;11.00;99.90;;;;;;5039419;28;20033;-79
2022/03/17 04:51:44;;;;;;;35.33;19.77;;;10.90;99.90;;;;;;5031312;28;20056;-79
2022/03/17 04:54:10;;;;;;;33.30;22.02;;;10.90;99.90;;;;;;5029632;28;20041;-79
2022/03/17 04:56:35;;;;;;;31.63;20.40;;;11.00;99.90;;;;;;5038226;28;20052;-80
2022/03/17 04:59:01;;;;;;;34.17;20.15;;;11.10;99.90;;;;;;5032248;28;20112;-80
2022/03/17 05:01:26;;;;;;;29.20;18.83;;;11.00;99.90;;;;;;5036743;28;20040;-78
2022/03/17 05:03:53;;;;;;;29.33;18.85;;;11.00;99.90;;;;;;5039980;28;20025;-79
2022/03/17 05:06:19;;;;;;;30.42;18.67;;;11.10;99.90;;;;;;5038989;28;20041;-80
2022/03/17 05:08:44;;;;;;;28.85;17.88;;;11.20;99.90;;;;;;5028631;28;20030;-80
2022/03/17 05:11:10;;;;;;;30.70;17.27;;;11.10;99.90;;;;;;5040830;28;20029;-79
2022/03/17 05:13:37;;;;;;;26.65;16.65;;;11.10;99.90;;;;;;5031280;28;20022;-80
2022/03/17 05:16:07;;;;;;;24.75;15.45;;;11.10;99.90;;;;;;5040779;28;20029;-80
2022/03/17 05:18:33;;;;;;;28.73;15.90;;;11.20;99.90;;;;;;5038623;28;20112;-80
2022/03/17 05:20:59;;;;;;;27.92;14.38;;;11.10;99.90;;;;;;5033129;28;20021;-81
2022/03/17 05:23:25;;;;;;;20.48;12.38;;;11.00;99.90;;;;;;5037763;28;20037;-79
2022/03/17 05:25:51;;;;;;;24.38;13.07;;;11.00;99.90;;;;;;5039584;28;20025;-80
2022/03/17 05:28:18;;;;;;;19.30;11.88;;;10.90;99.90;;;;;;5027101;28;20092;-79
2022/03/17 05:30:45;;;;;;;18.88;10.77;;;10.90;99.90;;;;;;5036926;28;20061;-79
2022/03/17 05:33:11;;;;;;;18.25;8.23;;;10.80;99.90;;;;;;5039110;28;20039;-79
2022/03/17 05:35:40;;;;;;;18.85;7.57;;;10.70;99.90;;;;;;5047383;28;20060;-80
2022/03/17 05:38:06;;;;;;;11.20;7.45;;;10.90;99.90;;;;;;5021407;28;20041;-78
2022/03/17 05:40:32;;;;;;;14.18;6.65;;;10.70;99.90;;;;;;5050215;28;20025;-80
2022/03/17 05:43:00;;;;;;;14.38;6.55;;;10.80;99.90;;;;;;5037575;28;20030;-79
2022/03/17 05:45:27;;;;;;;13.20;5.18;;;10.70;99.90;;;;;;5037538;28;20087;-79
2022/03/17 05:47:55;;;;;;;12.20;5.80;;;10.70;99.90;;;;;;5028906;28;20095;-78
2022/03/17 05:50:23;;;;;;;13.45;5.38;;;10.80;99.90;;;;;;5036826;28;20029;-78
2022/03/17 05:52:49;;;;;;;12.57;5.40;;;10.80;99.90;;;;;;5037214;28;20044;-79
2022/03/17 05:55:16;;;;;;;11.77;5.63;;;10.80;99.90;;;;;;5037959;28;20024;-79
2022/03/17 05:57:45;;;;;;;11.10;5.35;;;10.70;99.90;;;;;;5034144;28;20030;-79
2022/03/17 06:00:13;;;;;;;12.93;5.78;;;10.80;99.90;;;;;;5039467;28;20018;-78
2022/03/17 06:02:39;;;;;;;13.02;5.60;;;10.80;99.90;;;;;;5039708;28;20041;-78
2022/03/17 06:05:07;;;;;;;13.90;5.10;;;10.80;99.90;;;;;;5029304;28;20075;-78
2022/03/17 06:07:41;;;;;;;14.57;5.30;;;10.90;99.90;;;;;;5037985;28;20434;-79
2022/03/17 06:10:10;;;;;;;13.40;5.43;;;10.80;99.90;;;;;;5039128;28;20036;-79
2022/03/17 06:12:36;;;;;;;10.18;5.18;;;10.80;99.90;;;;;;5026564;28;20092;-78
2022/03/17 06:15:03;;;;;;;10.13;5.53;;;10.70;99.90;;;;;;5037371;28;20479;-79
2022/03/17 06:17:49;;;;;;;17.63;5.82;;;10.70;99.90;;;;;;5044880;28;20042;-79
2022/03/17 06:20:17;;;;;;;13.77;4.88;;;10.70;99.90;;;;;;5039084;28;20060;-78
2022/03/17 06:22:46;;;;;;;16.73;6.57;;;10.70;99.90;;;;;;5031647;28;20025;-79
2022/03/17 06:25:14;;;;;;;15.23;6.07;;;10.80;99.90;;;;;;5043316;28;20083;-79
2022/03/17 06:27:41;;;;;;;16.10;6.13;;;10.90;99.90;;;;;;5035962;28;20058;-78
2022/03/17 06:30:09;;;;;;;10.75;5.72;;;10.90;99.90;;;;;;5024247;28;20117;-78
2022/03/17 06:32:34;;;;;;;16.63;6.00;;;11.00;99.90;;;;;;5039736;28;20033;-80
2022/03/17 06:35:00;;;;;;;10.15;5.50;;;11.00;99.90;;;;;;5029690;28;20048;-79
2022/03/17 06:37:26;;;;;;;13.98;6.55;;;11.00;99.90;;;;;;5032533;28;20025;-79
2022/03/17 06:39:53;;;;;;;13.75;6.05;;;10.90;99.90;;;;;;5030952;28;20034;-79
2022/03/17 06:42:20;;;;;;;15.75;7.32;;;11.00;99.90;;;;;;5035768;28;20450;-78
2022/03/17 06:44:46;;;;;;;14.80;6.93;;;11.00;99.90;;;;;;5027663;28;20033;-76
2022/03/17 06:47:12;;;;;;;16.30;7.38;;;11.00;99.90;;;;;;5031192;28;20462;-78
2022/03/17 06:49:37;;;;;;;13.45;7.38;;;11.10;99.90;;;;;;5030908;28;20033;-77
2022/03/17 06:52:03;;;;;;;14.40;6.68;;;11.10;99.90;;;;;;5029693;28;20573;-77
2022/03/17 06:54:29;;;;;;;14.57;7.20;;;11.10;99.90;;;;;;5039937;28;20029;-78
2022/03/17 06:56:54;;;;;;;16.52;6.85;;;11.00;99.90;;;;;;5040505;28;20078;-78
2022/03/17 06:59:21;;;;;;;19.33;7.32;;;10.90;99.90;;;;;;5037581;28;20030;-78
2022/03/17 07:01:46;;;;;;;16.77;7.60;;;10.90;99.90;;;;;;5041381;28;20029;-78
2022/03/17 07:04:12;;;;;;;15.68;8.35;;;11.00;99.90;;;;;;5037174;28;20027;-78
2022/03/17 07:06:37;;;;;;;15.82;9.50;;;11.00;99.90;;;;;;5040696;28;20527;-77
2022/03/17 07:09:03;;;;;;;15.25;7.93;;;11.00;99.90;;;;;;5039667;28;20038;-77
2022/03/17 07:11:29;;;;;;;19.30;7.93;;;10.80;99.90;;;;;;5029210;28;20394;-76
2022/03/17 07:13:54;;;;;;;13.23;6.95;;;10.70;99.90;;;;;;5031174;28;22073;-76
2022/03/17 07:16:20;;;;;;;12.15;6.65;;;10.60;99.90;;;;;;5028779;28;20024;-77
2022/03/17 07:18:46;;;;;;;11.32;6.05;;;10.60;99.90;;;;;;5037461;28;20075;-78
2022/03/17 07:21:12;;;;;;;16.00;6.55;;;10.70;99.90;;;;;;5024838;28;20022;-78
2022/03/17 07:23:38;;;;;;;16.02;5.95;;;10.80;99.90;;;;;;5036973;28;20458;-78
2022/03/17 07:26:04;;;;;;;7.30;4.45;;;10.90;99.90;;;;;;5022613;28;20095;-78
2022/03/17 07:28:30;;;;;;;13.65;4.70;;;10.80;99.90;;;;;;5038275;28;20025;-78
2022/03/17 07:30:55;;;;;;;9.10;4.80;;;10.70;99.90;;;;;;5031905;28;20033;-82
2022/03/17 07:33:21;;;;;;;13.13;5.10;;;10.80;99.90;;;;;;5033010;28;20485;-83
2022/03/17 07:35:46;;;;;;;14.07;4.70;;;10.80;99.90;;;;;;5031126;28;20068;-81
2022/03/17 07:38:12;;;;;;;11.88;4.55;;;10.80;99.90;;;;;;5031843;28;20462;-81
2022/03/17 07:40:38;;;;;;;12.70;5.47;;;10.70;99.90;;;;;;5044689;28;20028;-81
2022/03/17 07:43:04;;;;;;;8.05;3.72;;;10.70;99.90;;;;;;5039559;28;20207;-83
2022/03/17 07:45:30;;;;;;;12.25;4.18;;;10.60;99.90;;;;;;5028562;28;20057;-84
2022/03/17 07:47:56;;;;;;;12.65;4.22;;;10.60;99.90;;;;;;5025233;28;20482;-84
2022/03/17 07:50:22;;;;;;;10.95;3.88;;;10.60;99.90;;;;;;5025592;28;20041;-84
2022/03/17 07:52:47;;;;;;;6.07;3.63;;;10.50;99.90;;;;;;5032908;28;20493;-84
2022/03/17 07:55:13;;;;;;;9.60;4.20;;;10.50;99.90;;;;;;5038078;28;20540;-83
2022/03/17 07:57:40;;;;;;;13.43;4.65;;;10.60;99.90;;;;;;5032034;28;20014;-83
2022/03/17 08:00:07;;;;;;;10.50;3.97;;;10.70;99.90;;;;;;5039581;28;20068;-83
2022/03/17 08:02:33;;;;;;;9.70;4.30;;;10.70;99.90;;;;;;5026653;28;20604;-83
2022/03/17 08:05:04;;;;;;;12.55;5.35;;;10.80;99.90;;;;;;5035206;28;20061;-83
2022/03/17 08:07:30;;;;;;;12.45;4.20;;;10.90;99.90;;;;;;5034991;28;20082;-81
2022/03/17 08:09:57;;;;;;;8.38;4.20;;;10.80;99.90;;;;;;5029871;28;20020;-81
2022/03/17 08:12:26;;;;;;;9.82;3.97;;;10.90;99.90;;;;;;5040736;28;20033;-82
2022/03/17 08:14:53;;;;;;;9.65;4.32;;;10.80;99.90;;;;;;5034339;28;20018;-84
2022/03/17 08:17:20;;;;;;;6.75;3.80;;;10.90;99.90;;;;;;5035957;28;20021;-82
2022/03/17 08:19:45;;;;;;;8.80;3.72;;;10.80;99.90;;;;;;5035197;28;20029;-82
2022/03/17 08:22:11;;;;;;;10.77;4.38;;;10.90;99.90;;;;;;5026163;28;20355;-81
2022/03/17 08:24:37;;;;;;;10.60;3.95;;;10.80;99.90;;;;;;5040585;28;20106;-82
2022/03/17 08:27:03;;;;;;;10.40;4.55;;;10.80;99.90;;;;;;5028963;28;20091;-82
2022/03/17 08:29:30;;;;;;;12.48;4.50;;;10.80;99.90;;;;;;5038661;28;20037;-83
2022/03/17 08:31:55;;;;;;;10.85;4.22;;;10.90;99.90;;;;;;5029296;28;20033;-83
2022/03/17 08:34:21;;;;;;;11.32;3.63;;;10.80;99.90;;;;;;5036427;28;20105;-82
2022/03/17 08:36:49;;;;;;;11.88;4.50;;;10.90;99.90;;;;;;5032173;28;20030;-81
2022/03/17 08:39:15;;;;;;;10.68;4.13;;;11.00;99.90;;;;;;5031238;28;20016;-81
2022/03/17 08:41:41;;;;;;;13.07;3.75;;;11.10;99.90;;;;;;5031757;28;20035;-82
2022/03/17 08:44:07;;;;;;;9.63;4.35;;;11.20;99.90;;;;;;5038056;28;20025;-82
2022/03/17 08:49:19;;;;;;;7.53;3.58;;;11.30;99.90;;;;;;5026671;28;20115;-81
2022/03/17 08:51:47;;;;;;;12.00;3.55;;;11.30;99.90;;;;;;5035322;28;20025;-81
2022/03/17 08:54:13;;;;;;;15.40;3.85;;;11.20;99.90;;;;;;5032154;28;20029;-82
2022/03/17 08:56:39;;;;;;;10.57;3.75;;;11.20;99.90;;;;;;5031586;28;20025;-82
2022/03/17 08:59:06;;;;;;;11.77;3.78;;;11.10;99.90;;;;;;5033675;28;20033;-83
2022/03/17 09:01:32;;;;;;;12.15;3.55;;;11.10;99.90;;;;;;5035270;28;20025;-82
2022/03/17 09:03:58;;;;;;;9.75;3.88;;;11.10;99.90;;;;;;5034060;28;20025;-83
2022/03/17 09:06:24;;;;;;;12.35;3.88;;;11.00;99.90;;;;;;5032680;28;20120;-82
2022/03/17 09:08:50;;;;;;;10.30;3.92;;;11.10;99.90;;;;;;5028147;28;20121;-82
2022/03/17 09:11:16;;;;;;;9.13;3.65;;;11.20;99.90;;;;;;5031927;28;20370;-81
2022/03/17 09:13:41;;;;;;;9.20;4.28;;;11.10;99.90;;;;;;5033010;28;20048;-80
2022/03/17 09:16:07;;;;;;;10.27;4.28;;;11.10;99.90;;;;;;5031451;28;20030;-80
2022/03/17 09:18:33;;;;;;;11.38;3.85;;;11.10;99.90;;;;;;5048085;28;20022;-81
2022/03/17 09:21:00;;;;;;;11.68;4.18;;;11.20;99.90;;;;;;5030024;28;20370;-87
2022/03/17 09:23:29;;;;;;;20.33;5.03;;;11.20;99.90;;;;;;5032067;28;20469;-84
2022/03/17 09:25:55;;;;;;;12.30;4.57;;;11.20;99.90;;;;;;5032643;28;20022;-80
2022/03/17 09:28:21;;;;;;;11.93;3.95;;;11.30;99.90;;;;;;5031777;28;20037;-82
2022/03/17 09:30:46;;;;;;;7.18;3.55;;;11.30;99.90;;;;;;5025381;28;20063;-81
2022/03/17 09:33:12;;;;;;;8.68;4.05;;;11.40;99.90;;;;;;5038791;28;20124;-81
2022/03/17 09:35:38;;;;;;;11.38;3.63;;;11.40;99.90;;;;;;5051143;28;20107;-81
2022/03/17 09:38:05;;;;;;;16.08;3.10;;;11.40;99.90;;;;;;5035119;28;20037;-81
2022/03/17 09:40:31;;;;;;;16.48;3.83;;;11.40;99.90;;;;;;5024776;28;20102;-82
2022/03/17 09:45:42;;;;;;;10.13;2.72;;;11.40;99.90;;;;;;5036102;28;20389;-81
2022/03/17 09:48:10;;;;;;;10.70;3.00;;;11.40;99.90;;;;;;5034829;28;20116;-81
2022/03/17 09:50:37;;;;;;;19.23;3.88;;;11.40;99.90;;;;;;5027545;28;20029;-82
2022/03/17 09:53:03;;;;;;;8.20;2.70;;;11.40;99.90;;;;;;5038625;28;20025;-82
2022/03/17 09:55:28;;;;;;;14.88;3.67;;;11.40;99.90;;;;;;5027647;28;20170;-83
2022/03/17 09:57:55;;;;;;;8.38;3.25;;;11.50;99.90;;;;;;5036932;28;20539;-82
2022/03/17 10:00:20;;;;;;;13.30;3.30;;;11.60;99.90;;;;;;5035375;28;20541;-82
2022/03/17 10:02:46;;;;;;;14.77;2.92;;;11.70;99.90;;;;;;5029075;28;20022;-81
2022/03/17 10:05:12;;;;;;;11.63;2.25;;;11.70;99.90;;;;;;5033280;28;20030;-81
2022/03/17 10:07:39;;;;;;;8.85;2.47;;;11.80;99.90;;;;;;5042059;28;20239;-81
2022/03/17 10:10:05;;;;;;;14.70;2.47;;;11.80;99.90;;;;;;5041097;28;20527;-81
2022/03/17 10:12:31;;;;;;;15.75;2.83;;;11.70;99.90;;;;;;5019113;28;20041;-81
2022/03/17 10:14:58;;;;;;;9.23;2.10;;;11.70;99.90;;;;;;5033231;28;20025;-83
2022/03/17 10:17:32;;;;;;;12.18;2.72;;;11.80;99.90;;;;;;5039798;28;20039;-80
2022/03/17 10:20:17;;;;;;;9.75;2.40;;;11.80;99.90;;;;;;5039294;28;20425;-81
2022/03/17 10:22:48;;;;;;;15.30;2.58;;;12.00;99.90;;;;;;5041951;28;20025;-81
2022/03/17 10:25:22;;;;;;;9.75;2.50;;;12.00;99.90;;;;;;5044438;28;20083;-82
2022/03/17 10:27:49;;;;;;;9.32;2.70;;;12.00;99.90;;;;;;5035992;28;20034;-80
2022/03/17 10:30:30;;;;;;;9.65;2.65;;;11.90;99.90;;;;;;5036396;28;20017;-82
2022/03/17 10:33:00;;;;;;;10.13;2.58;;;12.00;99.90;;;;;;5030628;28;20105;-85
2022/03/17 10:35:34;;;;;;;9.73;2.78;;;12.10;99.90;;;;;;5045448;28;20033;-85
2022/03/17 10:38:16;;;;;;;9.50;3.42;;;12.20;99.90;;;;;;5040340;28;20030;-85
2022/03/17 10:40:44;;;;;;;9.13;2.85;;;12.10;99.90;;;;;;5040467;28;20025;-86
2022/03/17 10:43:14;;;;;;;10.52;3.30;;;12.20;99.90;;;;;;5038955;28;20083;-84
2022/03/17 10:45:40;;;;;;;13.15;3.25;;;12.20;99.90;;;;;;5036593;28;20041;-86
2022/03/17 10:48:06;;;;;;;12.48;3.53;;;12.20;99.90;;;;;;5040078;28;20025;-85
2022/03/17 10:50:38;;;;;;;13.40;3.30;;;12.20;99.90;;;;;;5038589;28;20018;-84
2022/03/17 10:53:04;;;;;;;14.10;3.95;;;12.20;99.90;;;;;;5042062;28;20374;-83
2022/03/17 10:55:32;;;;;;;13.98;3.60;;;12.20;99.90;;;;;;5046210;28;20092;-84
2022/03/17 10:58:14;;;;;;;7.40;3.30;;;12.10;99.90;;;;;;5046543;28;20040;-84
2022/03/17 11:00:51;;;;;;;14.27;3.92;;;12.20;99.90;;;;;;5046545;28;20274;-85
2022/03/17 11:03:18;;;;;;;14.35;3.28;;;12.20;99.90;;;;;;5030566;28;20037;-84
2022/03/17 11:05:44;;;;;;;12.60;2.60;;;12.20;99.90;;;;;;5043949;28;20464;-84
2022/03/17 11:08:10;;;;;;;7.45;2.10;;;12.10;99.90;;;;;;5039062;28;20069;-83
2022/03/17 11:10:41;;;;;;;8.05;2.10;;;12.10;99.90;;;;;;5030541;28;20424;-84
2022/03/17 11:13:11;;;;;;;12.13;2.42;;;12.20;99.90;;;;;;5038787;28;20025;-84
2022/03/17 11:15:45;;;;;;;9.40;2.47;;;12.30;99.90;;;;;;5044751;28;20037;-85
2022/03/17 11:18:19;;;;;;;9.48;2.65;;;12.20;99.90;;;;;;5035115;28;20032;-85
2022/03/17 11:20:46;;;;;;;10.25;2.42;;;12.20;99.90;;;;;;5027981;28;20036;-84
2022/03/17 11:23:18;;;;;;;10.38;2.75;;;12.20;99.90;;;;;;5041912;28;20017;-83
2022/03/17 11:25:58;;;;;;;10.38;2.05;;;12.20;99.90;;;;;;5044093;28;20026;-83
2022/03/17 11:28:30;;;;;;;8.60;2.50;;;12.30;99.90;;;;;;5036454;28;20036;-86
2022/03/17 11:31:00;;;;;;;12.52;2.47;;;12.30;99.90;;;;;;5034709;28;20036;-83
2022/03/17 11:33:33;;;;;;;5.93;1.90;;;12.40;99.90;;;;;;5028720;28;20387;-83
2022/03/17 11:36:00;;;;;;;;;;;12.40;99.90;;;;;;5038201;28;20064;-82
2022/03/17 11:38:38;;;;;;;10.63;2.72;;;12.50;99.90;;;;;;5029017;28;19910;-83
2022/03/17 11:41:14;;;;;;;8.88;2.35;;;12.50;99.90;;;;;;5042171;28;20027;-83
2022/03/17 11:43:45;;;;;;;9.57;3.13;;;12.60;99.90;;;;;;5031395;28;20037;-83
2022/03/17 11:46:43;;;;;;;8.90;2.67;;;12.50;99.90;;;;;;5032947;28;20100;-84
2022/03/17 11:49:22;;;;;;;8.05;2.45;;;12.50;99.90;;;;;;5031475;28;20106;-84
2022/03/17 11:51:58;;;;;;;10.68;3.25;;;12.70;99.90;;;;;;5038496;28;20104;-84
2022/03/17 11:54:24;;;;;;;8.38;2.75;;;12.70;99.90;;;;;;5041205;28;20108;-84
2022/03/17 11:56:55;;;;;;;11.48;3.50;;;12.70;99.90;;;;;;5041093;28;20041;-83
2022/03/17 11:59:26;;;;;;;9.85;3.75;;;12.70;99.90;;;;;;5042651;28;20032;-84
2022/03/17 12:01:55;;;;;;;6.28;3.30;;;12.70;99.90;;;;;;5035384;28;20021;-84
2022/03/17 12:04:30;;;;;;;10.85;3.83;;;12.70;99.90;;;;;;5046406;28;20493;-87
2022/03/17 12:07:10;;;;;;;9.95;4.78;;;12.80;99.90;;;;;;5039501;28;20045;-85
2022/03/17 12:09:36;;;;;;;12.98;4.90;;;12.70;99.90;;;;;;5049061;28;20025;-84
2022/03/17 12:12:15;;;;;;;10.63;5.03;;;12.80;99.90;;;;;;5040779;28;20026;-83
2022/03/17 12:14:49;;;;;;;8.93;4.90;;;12.80;99.90;;;;;;5037689;28;20022;-83
2022/03/17 12:17:17;;;;;;;8.88;5.22;;;12.80;99.90;;;;;;5048230;28;20079;-84
2022/03/17 12:19:48;;;;;;;8.75;5.13;;;12.80;99.90;;;;;;5035650;28;20041;-85
2022/03/17 12:22:31;;;;;;;7.45;4.68;;;12.90;99.90;;;;;;5035533;28;20025;-83
2022/03/17 12:25:18;;;;;;;11.25;4.78;;;12.90;99.90;;;;;;5042734;28;20032;-83
2022/03/17 12:27:51;;;;;;;15.80;4.97;;;12.90;99.90;;;;;;5026224;28;20108;-85
2022/03/17 12:30:18;;;;;;;10.13;4.55;;;12.90;99.90;;;;;;5043504;28;20029;-83
2022/03/17 12:32:52;;;;;;;10.27;5.20;;;13.00;99.90;;;;;;5050458;28;20088;-85
2022/03/17 12:35:32;;;;;;;11.93;4.88;;;12.90;99.90;;;;;;5035885;28;20021;-86
2022/03/17 12:38:04;;;;;;;6.68;5.05;;;13.00;99.90;;;;;;5032941;28;20037;-82
2022/03/17 12:40:33;;;;;;;10.98;4.75;;;13.00;99.90;;;;;;5040931;28;20043;-84
2022/03/17 12:42:59;;;;;;;13.30;5.70;;;13.10;99.90;;;;;;5035751;28;20037;-85
2022/03/17 12:45:25;;;;;;;7.57;4.90;;;13.00;99.90;;;;;;5042711;28;20029;-85
2022/03/17 12:47:56;;;;;;;11.38;5.32;;;13.00;99.90;;;;;;5042205;28;20076;-84
2022/03/17 12:50:23;;;;;;;10.83;5.97;;;13.00;99.90;;;;;;5027477;28;20071;-84
2022/03/17 12:52:50;;;;;;;8.57;5.90;;;13.00;99.90;;;;;;5041147;28;20024;-84